createdAt,value
2016-07-20T00:00:05.075Z,99.4
2016-07-20T00:00:15.072Z,99.6
2016-07-20T00:00:25.068Z,99.4
2016-07-20T00:00:35.063Z,99.2
2016-07-20T00:00:45.060Z,99.3
2016-07-20T00:00:55.055Z,99
2016-07-20T00:01:05.051Z,99.2
2016-07-20T00:01:15.047Z,99.2
2016-07-20T00:01:25.042Z,99.3
2016-07-20T00:01:35.037Z,99.2
2016-07-20T00:01:45.032Z,99.3
2016-07-20T00:01:55.028Z,99.4
2016-07-20T00:02:05.024Z,99.2
2016-07-20T00:02:15.019Z,99.4
2016-07-20T00:02:25.015Z,99.5
2016-07-20T00:02:35.012Z,99.5
2016-07-20T00:02:45.009Z,99.6
2016-07-20T00:02:55.004Z,99.5
2016-07-20T00:03:04.998Z,99.6
2016-07-20T00:03:14.994Z,99.3
2016-07-20T00:03:24.990Z,99.3
2016-07-20T00:03:34.986Z,99.2
2016-07-20T00:03:44.983Z,99
2016-07-20T00:03:54.977Z,99.3
2016-07-20T00:04:04.972Z,99.5
2016-07-20T00:04:14.970Z,99.5
2016-07-20T00:04:24.963Z,99.7
2016-07-20T00:04:34.960Z,99.5
2016-07-20T00:04:44.958Z,99.4
2016-07-20T00:04:54.950Z,99.5
2016-07-20T00:05:04.947Z,99.6
2016-07-20T00:05:14.942Z,99.5
2016-07-20T00:05:24.939Z,99.7
2016-07-20T00:05:34.941Z,99.7
2016-07-20T00:05:44.930Z,100
2016-07-20T00:05:54.925Z,99.4
2016-07-20T00:06:04.923Z,99.5
2016-07-20T00:06:14.923Z,99.5
2016-07-20T00:06:24.913Z,100
2016-07-20T00:06:34.907Z,99.6
2016-07-20T00:06:44.904Z,99.5
2016-07-20T00:06:54.899Z,99.5
2016-07-20T00:07:04.894Z,99.5
2016-07-20T00:07:14.890Z,99.4
2016-07-20T00:07:24.888Z,100
2016-07-20T00:07:34.882Z,99.6
2016-07-20T00:07:44.878Z,99.4
2016-07-20T00:07:54.875Z,99.5
2016-07-20T00:08:04.871Z,100
2016-07-20T00:08:14.868Z,100
2016-07-20T00:08:24.860Z,99.5
2016-07-20T00:08:34.857Z,99.2
2016-07-20T00:08:44.854Z,99.5
2016-07-20T00:08:54.849Z,99.2
2016-07-20T00:09:04.845Z,99.2
2016-07-20T00:09:14.841Z,99.5
2016-07-20T00:09:24.836Z,99.9
2016-07-20T00:09:34.833Z,99.7
2016-07-20T00:09:44.825Z,99.4
2016-07-20T00:09:54.823Z,99.8
2016-07-20T00:10:04.818Z,99.7
2016-07-20T00:10:14.812Z,99.6
2016-07-20T00:10:24.810Z,99.5
2016-07-20T00:10:34.806Z,99.5
2016-07-20T00:10:44.802Z,99.4
2016-07-20T00:10:54.795Z,99.7
2016-07-20T00:11:04.800Z,99.6
2016-07-20T00:11:14.787Z,99.6
2016-07-20T00:11:24.786Z,99.3
2016-07-20T00:11:34.779Z,99.3
2016-07-20T00:11:44.773Z,99.5
2016-07-20T00:11:54.771Z,99.5
2016-07-20T00:12:04.768Z,99.5
2016-07-20T00:12:14.761Z,99.8
2016-07-20T00:12:24.756Z,99.5
2016-07-20T00:12:34.751Z,99.8
2016-07-20T00:12:44.750Z,99.8
2016-07-20T00:12:54.745Z,99.7
2016-07-20T00:13:04.741Z,100
2016-07-20T00:13:14.738Z,99.7
2016-07-20T00:13:24.736Z,99.7
2016-07-20T00:13:34.725Z,99.5
2016-07-20T00:13:44.722Z,100
2016-07-20T00:13:54.719Z,99.8
2016-07-20T00:14:04.715Z,99.8
2016-07-20T00:14:14.709Z,99.5
2016-07-20T00:14:24.707Z,99.5
2016-07-20T00:14:34.702Z,99.7
2016-07-20T00:14:44.698Z,99.6
2016-07-20T00:14:54.696Z,99.6
2016-07-20T00:15:04.694Z,99.7
2016-07-20T00:15:14.683Z,99.6
2016-07-20T00:15:24.679Z,99.7
2016-07-20T00:15:34.674Z,99.7
2016-07-20T00:15:44.670Z,99.5
2016-07-20T00:15:54.669Z,99.5
2016-07-20T00:16:04.662Z,99.7
2016-07-20T00:16:14.660Z,99.5
2016-07-20T00:16:24.652Z,99.5
2016-07-20T00:16:34.650Z,99.5
2016-07-20T00:16:44.646Z,99.4
2016-07-20T00:16:54.641Z,99.5
2016-07-20T00:17:04.638Z,99.6
2016-07-20T00:17:14.632Z,99.5
2016-07-20T00:17:24.629Z,99.3
2016-07-20T00:17:34.622Z,99.7
2016-07-20T00:17:44.620Z,99.5
2016-07-20T00:17:54.615Z,99.5
2016-07-20T00:18:04.611Z,99.5
2016-07-20T00:18:14.609Z,99.5
2016-07-20T00:18:24.605Z,99.5
2016-07-20T00:18:34.598Z,99.6
2016-07-20T00:18:44.600Z,99.4
2016-07-20T00:18:54.589Z,99.9
2016-07-20T00:19:04.584Z,99.8
2016-07-20T00:19:14.581Z,99.9
2016-07-20T00:19:24.578Z,99.8
2016-07-20T00:19:34.572Z,99.7
2016-07-20T00:19:44.567Z,99.5
2016-07-20T00:19:54.565Z,99.5
2016-07-20T00:20:04.560Z,99.5
2016-07-20T00:20:14.556Z,99.7
2016-07-20T00:20:24.550Z,99.8
2016-07-20T00:20:34.545Z,99.6
2016-07-20T00:20:44.540Z,99.7
2016-07-20T00:20:54.539Z,99.8
2016-07-20T00:21:04.535Z,99.5
2016-07-20T00:21:14.529Z,99.8
2016-07-20T00:21:24.528Z,100
2016-07-20T00:21:34.523Z,100
2016-07-20T00:21:44.516Z,99.6
2016-07-20T00:21:54.510Z,99.9
2016-07-20T00:22:04.509Z,99.8
2016-07-20T00:22:14.502Z,99.9
2016-07-20T00:22:24.498Z,99.7
2016-07-20T00:22:34.497Z,99.9
2016-07-20T00:22:44.490Z,99.8
2016-07-20T00:22:54.495Z,99.6
2016-07-20T00:23:04.483Z,99.9
2016-07-20T00:23:14.477Z,99.9
2016-07-20T00:23:24.474Z,99.8
2016-07-20T00:23:34.471Z,100
2016-07-20T00:23:44.465Z,99.9
2016-07-20T00:23:54.460Z,99.9
2016-07-20T00:24:05.189Z,99.5
2016-07-20T00:24:14.452Z,99.6
2016-07-20T00:24:24.446Z,99.6
2016-07-20T00:24:34.444Z,99.9
2016-07-20T00:24:44.452Z,100
2016-07-20T00:24:54.437Z,100
2016-07-20T00:25:04.432Z,100
2016-07-20T00:25:14.426Z,100
2016-07-20T00:25:24.421Z,99.8
2016-07-20T00:25:34.417Z,99.9
2016-07-20T00:25:44.415Z,100
2016-07-20T00:25:54.410Z,100
2016-07-20T00:26:04.406Z,99.8
2016-07-20T00:26:14.403Z,99.8
2016-07-20T00:26:24.397Z,99.8
2016-07-20T00:26:34.394Z,100
2016-07-20T00:26:44.388Z,100
2016-07-20T00:26:54.383Z,100
2016-07-20T00:27:04.381Z,100
2016-07-20T00:27:14.377Z,100
2016-07-20T00:27:24.372Z,100
2016-07-20T00:27:34.368Z,100
2016-07-20T00:27:44.363Z,100
2016-07-20T00:27:54.361Z,100
2016-07-20T00:28:04.353Z,99.8
2016-07-20T00:28:14.350Z,99.6
2016-07-20T00:28:24.343Z,99.8
2016-07-20T00:28:34.341Z,99.8
2016-07-20T00:28:44.337Z,99.9
2016-07-20T00:28:54.331Z,100
2016-07-20T00:29:04.331Z,100
2016-07-20T00:29:14.324Z,100
2016-07-20T00:29:24.319Z,100
2016-07-20T00:29:34.314Z,99.9
2016-07-20T00:29:44.309Z,99.8
2016-07-20T00:29:54.307Z,100
2016-07-20T00:30:04.303Z,100
2016-07-20T00:30:14.299Z,100
2016-07-20T00:30:24.297Z,100
2016-07-20T00:30:34.291Z,100
2016-07-20T00:30:44.286Z,100
2016-07-20T00:30:54.281Z,100
2016-07-20T00:31:04.278Z,100
2016-07-20T00:31:14.273Z,100
2016-07-20T00:31:24.271Z,100
2016-07-20T00:31:34.264Z,99.8
2016-07-20T00:31:44.263Z,99.9
2016-07-20T00:31:54.255Z,99.7
2016-07-20T00:32:04.251Z,100
2016-07-20T00:32:14.246Z,99.9
2016-07-20T00:32:24.242Z,99.9
2016-07-20T00:32:34.238Z,99.8
2016-07-20T00:32:44.231Z,99.9
2016-07-20T00:32:54.227Z,99.7
2016-07-20T00:33:04.224Z,99.5
2016-07-20T00:33:14.219Z,99.8
2016-07-20T00:33:24.215Z,99.9
2016-07-20T00:33:34.213Z,99.7
2016-07-20T00:33:44.207Z,99.6
2016-07-20T00:33:54.202Z,99.3
2016-07-20T00:34:04.203Z,99.6
2016-07-20T00:34:14.196Z,99.3
2016-07-20T00:34:24.191Z,99.3
2016-07-20T00:34:34.188Z,99.4
2016-07-20T00:34:44.183Z,99.9
2016-07-20T00:34:54.179Z,99.8
2016-07-20T00:35:04.176Z,99.9
2016-07-20T00:35:14.170Z,99.9
2016-07-20T00:35:24.178Z,100
2016-07-20T00:35:34.163Z,100
2016-07-20T00:35:44.158Z,100
2016-07-20T00:35:54.155Z,100
2016-07-20T00:36:04.150Z,100
2016-07-20T00:36:14.144Z,100
2016-07-20T00:36:24.143Z,100
2016-07-20T00:36:34.137Z,100
2016-07-20T00:36:44.132Z,100
2016-07-20T00:36:54.131Z,100
2016-07-20T00:37:04.122Z,100
2016-07-20T00:37:14.121Z,100
2016-07-20T00:37:24.114Z,100
2016-07-20T00:37:34.110Z,100
2016-07-20T00:37:44.105Z,100
2016-07-20T00:37:54.102Z,100
2016-07-20T00:38:04.098Z,100
2016-07-20T00:38:14.095Z,100
2016-07-20T00:38:24.088Z,100
2016-07-20T00:38:34.085Z,100
2016-07-20T00:38:44.080Z,100
2016-07-20T00:38:54.075Z,100
2016-07-20T00:39:04.071Z,100
2016-07-20T00:39:14.080Z,100
2016-07-20T00:39:24.062Z,99.9
2016-07-20T00:39:34.058Z,100
2016-07-20T00:39:44.051Z,99.6
2016-07-20T00:39:54.049Z,99.9
2016-07-20T00:40:04.043Z,99.9
2016-07-20T00:40:14.039Z,99.9
2016-07-20T00:40:24.034Z,99.6
2016-07-20T00:40:34.041Z,100
2016-07-20T00:40:44.027Z,100
2016-07-20T00:40:54.023Z,100
2016-07-20T00:41:04.020Z,100
2016-07-20T00:41:14.014Z,99.9
2016-07-20T00:41:24.008Z,100
2016-07-20T00:41:34.008Z,100
2016-07-20T00:41:44.000Z,100
2016-07-20T00:41:53.996Z,100
2016-07-20T00:42:03.991Z,100
2016-07-20T00:42:13.990Z,100
2016-07-20T00:42:23.984Z,100
2016-07-20T00:42:33.982Z,100
2016-07-20T00:42:43.976Z,100
2016-07-20T00:42:53.974Z,100
2016-07-20T00:43:03.967Z,100
2016-07-20T00:43:13.963Z,100
2016-07-20T00:43:23.959Z,100
2016-07-20T00:43:33.954Z,100
2016-07-20T00:43:43.952Z,100
2016-07-20T00:43:53.947Z,100
2016-07-20T00:44:03.943Z,100
2016-07-20T00:44:13.937Z,100
2016-07-20T00:44:23.933Z,100
2016-07-20T00:44:33.930Z,100
2016-07-20T00:44:43.925Z,100
2016-07-20T00:44:53.919Z,100
2016-07-20T00:45:03.921Z,100
2016-07-20T00:45:13.913Z,100
2016-07-20T00:45:23.906Z,100
2016-07-20T00:45:33.905Z,100
2016-07-20T00:45:43.898Z,100
2016-07-20T00:45:53.894Z,100
2016-07-20T00:46:03.891Z,100
2016-07-20T00:46:13.884Z,100
2016-07-20T00:46:23.880Z,100
2016-07-20T00:46:33.877Z,100
2016-07-20T00:46:43.871Z,100
2016-07-20T00:46:53.868Z,100
2016-07-20T00:47:03.865Z,100
2016-07-20T00:47:13.859Z,100
2016-07-20T00:47:23.855Z,100
2016-07-20T00:47:33.852Z,100
2016-07-20T00:47:43.844Z,100
2016-07-20T00:47:53.841Z,100
2016-07-20T00:48:03.835Z,100
2016-07-20T00:48:13.835Z,100
2016-07-20T00:48:23.828Z,100
2016-07-20T00:48:33.825Z,100
2016-07-20T00:48:43.820Z,100
2016-07-20T00:48:53.816Z,100
2016-07-20T00:49:03.811Z,100
2016-07-20T00:49:13.808Z,100
2016-07-20T00:49:23.804Z,100
2016-07-20T00:49:33.800Z,100
2016-07-20T00:49:43.793Z,100
2016-07-20T00:49:53.790Z,100
2016-07-20T00:50:03.786Z,100
2016-07-20T00:50:13.781Z,100
2016-07-20T00:50:23.777Z,100
2016-07-20T00:50:33.774Z,100
2016-07-20T00:50:44.509Z,100
2016-07-20T00:50:53.765Z,100
2016-07-20T00:51:03.760Z,100
2016-07-20T00:51:13.755Z,100
2016-07-20T00:51:23.750Z,100
2016-07-20T00:51:33.747Z,100
2016-07-20T00:51:43.744Z,100
2016-07-20T00:51:53.740Z,100
2016-07-20T00:52:03.735Z,100
2016-07-20T00:52:13.730Z,100
2016-07-20T00:52:23.725Z,100
2016-07-20T00:52:33.720Z,100
2016-07-20T00:52:43.717Z,100
2016-07-20T00:52:53.713Z,100
2016-07-20T00:53:03.706Z,100
2016-07-20T00:53:13.704Z,100
2016-07-20T00:53:23.700Z,100
2016-07-20T00:53:33.696Z,100
2016-07-20T00:53:43.691Z,100
2016-07-20T00:53:53.688Z,100
2016-07-20T00:54:04.412Z,100
2016-07-20T00:54:13.678Z,100
2016-07-20T00:54:23.675Z,100
2016-07-20T00:54:33.667Z,100
2016-07-20T00:54:43.664Z,100
2016-07-20T00:54:53.660Z,100
2016-07-20T00:55:03.653Z,100
2016-07-20T00:55:13.653Z,100
2016-07-20T00:55:23.647Z,100
2016-07-20T00:55:33.642Z,100
2016-07-20T00:55:43.636Z,100
2016-07-20T00:55:53.634Z,100
2016-07-20T00:56:03.635Z,100
2016-07-20T00:56:13.625Z,100
2016-07-20T00:56:23.619Z,100
2016-07-20T00:56:33.616Z,100
2016-07-20T00:56:43.612Z,100
2016-07-20T00:56:53.607Z,100
2016-07-20T00:57:03.604Z,100
2016-07-20T00:57:13.599Z,100
2016-07-20T00:57:23.593Z,100
2016-07-20T00:57:33.590Z,100
2016-07-20T00:57:43.586Z,100
2016-07-20T00:57:53.582Z,100
2016-07-20T00:58:03.577Z,100
2016-07-20T00:58:13.572Z,100
2016-07-20T00:58:23.567Z,100
2016-07-20T00:58:33.565Z,100
2016-07-20T00:58:43.560Z,100
2016-07-20T00:58:53.555Z,100
2016-07-20T00:59:03.552Z,100
2016-07-20T00:59:13.549Z,100
2016-07-20T00:59:23.542Z,100
2016-07-20T00:59:33.539Z,100
2016-07-20T00:59:43.536Z,100
2016-07-20T00:59:53.532Z,100
2016-07-20T01:00:03.526Z,100
2016-07-20T01:00:13.527Z,100
2016-07-20T01:00:23.518Z,100
2016-07-20T01:00:33.513Z,100
2016-07-20T01:00:43.510Z,100
2016-07-20T01:00:53.504Z,100
2016-07-20T01:01:03.503Z,100
2016-07-20T01:01:13.497Z,100
2016-07-20T01:01:23.493Z,100
2016-07-20T01:01:33.488Z,100
2016-07-20T01:01:43.482Z,100
2016-07-20T01:01:53.479Z,100
2016-07-20T01:02:03.482Z,100
2016-07-20T01:02:13.470Z,100
2016-07-20T01:02:23.464Z,100
2016-07-20T01:02:33.462Z,100
2016-07-20T01:02:43.457Z,100
2016-07-20T01:02:53.453Z,100
2016-07-20T01:03:03.446Z,100
2016-07-20T01:03:13.443Z,100
2016-07-20T01:03:23.439Z,100
2016-07-20T01:03:33.435Z,100
2016-07-20T01:03:43.429Z,100
2016-07-20T01:03:53.426Z,100
2016-07-20T01:04:03.422Z,100
2016-07-20T01:04:13.419Z,100
2016-07-20T01:04:23.412Z,100
2016-07-20T01:04:33.408Z,100
2016-07-20T01:04:43.405Z,100
2016-07-20T01:04:53.398Z,100
2016-07-20T01:05:03.394Z,100
2016-07-20T01:05:13.391Z,100
2016-07-20T01:05:23.386Z,100
2016-07-20T01:05:33.383Z,100
2016-07-20T01:05:43.378Z,100
2016-07-20T01:05:53.375Z,100
2016-07-20T01:06:03.370Z,100
2016-07-20T01:06:13.366Z,100
2016-07-20T01:06:23.362Z,100
2016-07-20T01:06:33.357Z,100
2016-07-20T01:06:43.353Z,100
2016-07-20T01:06:53.350Z,100
2016-07-20T01:07:03.345Z,100
2016-07-20T01:07:13.339Z,100
2016-07-20T01:07:23.336Z,100
2016-07-20T01:07:33.340Z,100
2016-07-20T01:07:43.328Z,100
2016-07-20T01:07:53.321Z,100
2016-07-20T01:08:03.318Z,100
2016-07-20T01:08:13.314Z,100
2016-07-20T01:08:23.307Z,100
2016-07-20T01:08:33.305Z,100
2016-07-20T01:08:43.300Z,100
2016-07-20T01:08:53.295Z,100
2016-07-20T01:09:03.293Z,100
2016-07-20T01:09:13.288Z,100
2016-07-20T01:09:23.282Z,100
2016-07-20T01:09:33.280Z,100
2016-07-20T01:09:43.273Z,100
2016-07-20T01:09:53.270Z,100
2016-07-20T01:10:03.267Z,100
2016-07-20T01:10:13.260Z,100
2016-07-20T01:10:23.259Z,100
2016-07-20T01:10:33.255Z,100
2016-07-20T01:10:43.247Z,100
2016-07-20T01:10:53.243Z,100
2016-07-20T01:11:03.240Z,100
2016-07-20T01:11:13.234Z,100
2016-07-20T01:11:23.230Z,100
2016-07-20T01:11:33.226Z,100
2016-07-20T01:11:43.221Z,100
2016-07-20T01:11:53.219Z,100
2016-07-20T01:12:03.214Z,100
2016-07-20T01:12:13.208Z,100
2016-07-20T01:12:23.205Z,100
2016-07-20T01:12:33.198Z,100
2016-07-20T01:12:43.196Z,100
2016-07-20T01:12:53.197Z,100
2016-07-20T01:13:03.186Z,100
2016-07-20T01:13:13.184Z,100
2016-07-20T01:13:23.179Z,100
2016-07-20T01:13:33.173Z,100
2016-07-20T01:13:43.177Z,100
2016-07-20T01:13:53.167Z,100
2016-07-20T01:14:03.161Z,100
2016-07-20T01:14:13.158Z,100
2016-07-20T01:14:23.153Z,100
2016-07-20T01:14:33.150Z,100
2016-07-20T01:14:43.144Z,100
2016-07-20T01:14:53.139Z,100
2016-07-20T01:15:03.135Z,100
2016-07-20T01:15:13.131Z,100
2016-07-20T01:15:23.129Z,100
2016-07-20T01:15:33.123Z,100
2016-07-20T01:15:43.117Z,100
2016-07-20T01:15:53.114Z,100
2016-07-20T01:16:03.115Z,100
2016-07-20T01:16:13.108Z,100
2016-07-20T01:16:23.102Z,100
2016-07-20T01:16:33.097Z,100
2016-07-20T01:16:43.094Z,100
2016-07-20T01:16:53.089Z,100
2016-07-20T01:17:03.083Z,100
2016-07-20T01:17:13.079Z,100
2016-07-20T01:17:23.075Z,100
2016-07-20T01:17:33.070Z,100
2016-07-20T01:17:43.068Z,100
2016-07-20T01:17:53.062Z,100
2016-07-20T01:18:03.058Z,100
2016-07-20T01:18:13.054Z,100
2016-07-20T01:18:23.047Z,100
2016-07-20T01:18:33.043Z,100
2016-07-20T01:18:43.041Z,100
2016-07-20T01:18:53.034Z,100
2016-07-20T01:19:03.035Z,100
2016-07-20T01:19:13.028Z,100
2016-07-20T01:19:23.023Z,100
2016-07-20T01:19:33.018Z,100
2016-07-20T01:19:43.013Z,100
2016-07-20T01:19:53.008Z,100
2016-07-20T01:20:03.005Z,100
2016-07-20T01:20:13.001Z,100
2016-07-20T01:20:22.994Z,100
2016-07-20T01:20:32.993Z,100
2016-07-20T01:20:42.986Z,100
2016-07-20T01:20:52.984Z,100
2016-07-20T01:21:02.981Z,100
2016-07-20T01:21:12.974Z,100
2016-07-20T01:21:22.970Z,100
2016-07-20T01:21:32.967Z,100
2016-07-20T01:21:42.962Z,100
2016-07-20T01:21:52.958Z,100
2016-07-20T01:22:02.953Z,100
2016-07-20T01:22:12.950Z,100
2016-07-20T01:22:22.944Z,100
2016-07-20T01:22:32.939Z,100
2016-07-20T01:22:42.936Z,100
2016-07-20T01:22:52.930Z,100
2016-07-20T01:23:02.928Z,100
2016-07-20T01:23:12.929Z,100
2016-07-20T01:23:22.919Z,100
2016-07-20T01:23:32.915Z,100
2016-07-20T01:23:42.911Z,100
2016-07-20T01:23:52.907Z,100
2016-07-20T01:24:02.902Z,100
2016-07-20T01:24:12.898Z,100
2016-07-20T01:24:22.891Z,100
2016-07-20T01:24:32.889Z,100
2016-07-20T01:24:42.884Z,100
2016-07-20T01:24:52.879Z,100
2016-07-20T01:25:02.875Z,100
2016-07-20T01:25:12.871Z,100
2016-07-20T01:25:22.866Z,100
2016-07-20T01:25:32.863Z,100
2016-07-20T01:25:42.858Z,100
2016-07-20T01:25:52.853Z,100
2016-07-20T01:26:02.850Z,100
2016-07-20T01:26:12.845Z,100
2016-07-20T01:26:22.841Z,100
2016-07-20T01:26:32.838Z,100
2016-07-20T01:26:42.830Z,100
2016-07-20T01:26:52.826Z,100
2016-07-20T01:27:02.824Z,100
2016-07-20T01:27:12.817Z,100
2016-07-20T01:27:22.813Z,100
2016-07-20T01:27:32.809Z,100
2016-07-20T01:27:42.803Z,100
2016-07-20T01:27:52.803Z,100
2016-07-20T01:28:02.795Z,100
2016-07-20T01:28:12.792Z,100
2016-07-20T01:28:22.785Z,100
2016-07-20T01:28:32.786Z,100
2016-07-20T01:28:42.780Z,100
2016-07-20T01:28:52.776Z,100
2016-07-20T01:29:02.770Z,100
2016-07-20T01:29:12.765Z,100
2016-07-20T01:29:22.760Z,100
2016-07-20T01:29:32.756Z,100
2016-07-20T01:29:42.759Z,100
2016-07-20T01:29:53.478Z,100
2016-07-20T01:30:02.745Z,100
2016-07-20T01:30:12.740Z,100
2016-07-20T01:30:22.737Z,100
2016-07-20T01:30:32.732Z,100
2016-07-20T01:30:42.728Z,100
2016-07-20T01:30:52.723Z,100
2016-07-20T01:31:02.718Z,100
2016-07-20T01:31:12.713Z,100
2016-07-20T01:31:22.710Z,100
2016-07-20T01:31:32.709Z,100
2016-07-20T01:31:42.702Z,100
2016-07-20T01:31:52.697Z,100
2016-07-20T01:32:02.694Z,100
2016-07-20T01:32:12.689Z,100
2016-07-20T01:32:22.689Z,100
2016-07-20T01:32:32.679Z,100
2016-07-20T01:32:42.675Z,100
2016-07-20T01:32:52.668Z,100
2016-07-20T01:33:02.668Z,100
2016-07-20T01:33:12.661Z,100
2016-07-20T01:33:22.656Z,100
2016-07-20T01:33:32.654Z,100
2016-07-20T01:33:42.649Z,100
2016-07-20T01:33:52.650Z,100
2016-07-20T01:34:02.842Z,100
2016-07-20T01:34:12.634Z,100
2016-07-20T01:34:22.630Z,100
2016-07-20T01:34:32.625Z,100
2016-07-20T01:34:42.623Z,100
2016-07-20T01:34:52.618Z,100
2016-07-20T01:35:02.614Z,100
2016-07-20T01:35:12.612Z,100
2016-07-20T01:35:22.605Z,100
2016-07-20T01:35:32.602Z,100
2016-07-20T01:35:42.595Z,100
2016-07-20T01:35:52.590Z,100
2016-07-20T01:36:02.586Z,100
2016-07-20T01:36:12.583Z,100
2016-07-20T01:36:22.579Z,100
2016-07-20T01:36:32.576Z,100
2016-07-20T01:36:42.572Z,100
2016-07-20T01:36:52.564Z,100
2016-07-20T01:37:02.563Z,100
2016-07-20T01:37:12.558Z,100
2016-07-20T01:37:22.554Z,100
2016-07-20T01:37:32.550Z,100
2016-07-20T01:37:42.549Z,100
2016-07-20T01:37:52.539Z,100
2016-07-20T01:38:02.537Z,100
2016-07-20T01:38:12.531Z,100
2016-07-20T01:38:22.529Z,100
2016-07-20T01:38:32.523Z,100
2016-07-20T01:38:42.520Z,100
2016-07-20T01:38:52.516Z,100
2016-07-20T01:39:02.511Z,100
2016-07-20T01:39:12.503Z,100
2016-07-20T01:39:22.500Z,100
2016-07-20T01:39:32.497Z,100
2016-07-20T01:39:42.494Z,100
2016-07-20T01:39:52.490Z,100
2016-07-20T01:40:02.491Z,100
2016-07-20T01:40:12.480Z,100
2016-07-20T01:40:22.474Z,100
2016-07-20T01:40:32.470Z,100
2016-07-20T01:40:42.468Z,100
2016-07-20T01:40:52.460Z,100
2016-07-20T01:41:02.458Z,100
2016-07-20T01:41:12.455Z,100
2016-07-20T01:41:22.449Z,100
2016-07-20T01:41:32.446Z,100
2016-07-20T01:41:42.441Z,100
2016-07-20T01:41:52.436Z,100
2016-07-20T01:42:02.433Z,100
2016-07-20T01:42:12.426Z,100
2016-07-20T01:42:22.424Z,100
2016-07-20T01:42:32.418Z,100
2016-07-20T01:42:42.414Z,100
2016-07-20T01:42:52.410Z,100
2016-07-20T01:43:02.404Z,100
2016-07-20T01:43:12.401Z,100
2016-07-20T01:43:22.402Z,100
2016-07-20T01:43:32.391Z,100
2016-07-20T01:43:42.388Z,100
2016-07-20T01:43:52.383Z,100
2016-07-20T01:44:02.379Z,100
2016-07-20T01:44:12.374Z,100
2016-07-20T01:44:22.369Z,100
2016-07-20T01:44:32.365Z,100
2016-07-20T01:44:42.362Z,100
2016-07-20T01:44:52.357Z,100
2016-07-20T01:45:02.353Z,100
2016-07-20T01:45:12.349Z,100
2016-07-20T01:45:22.344Z,100
2016-07-20T01:45:32.351Z,100
2016-07-20T01:45:42.337Z,100
2016-07-20T01:45:52.332Z,100
2016-07-20T01:46:02.329Z,100
2016-07-20T01:46:12.322Z,100
2016-07-20T01:46:22.319Z,100
2016-07-20T01:46:32.313Z,100
2016-07-20T01:46:42.311Z,100
2016-07-20T01:46:52.304Z,100
2016-07-20T01:47:02.302Z,100
2016-07-20T01:47:12.297Z,100
2016-07-20T01:47:22.293Z,100
2016-07-20T01:47:32.287Z,100
2016-07-20T01:47:42.284Z,100
2016-07-20T01:47:52.280Z,100
2016-07-20T01:48:02.276Z,100
2016-07-20T01:48:12.272Z,100
2016-07-20T01:48:22.266Z,100
2016-07-20T01:48:32.262Z,100
2016-07-20T01:48:42.258Z,100
2016-07-20T01:48:52.253Z,100
2016-07-20T01:49:02.249Z,100
2016-07-20T01:49:12.246Z,100
2016-07-20T01:49:22.240Z,100
2016-07-20T01:49:32.236Z,100
2016-07-20T01:49:42.231Z,100
2016-07-20T01:49:52.224Z,100
2016-07-20T01:50:02.223Z,100
2016-07-20T01:50:12.217Z,100
2016-07-20T01:50:22.215Z,100
2016-07-20T01:50:32.210Z,100
2016-07-20T01:50:42.204Z,100
2016-07-20T01:50:52.201Z,100
2016-07-20T01:51:02.207Z,100
2016-07-20T01:51:12.192Z,100
2016-07-20T01:51:22.188Z,100
2016-07-20T01:51:32.181Z,100
2016-07-20T01:51:42.180Z,100
2016-07-20T01:51:52.176Z,100
2016-07-20T01:52:02.181Z,100
2016-07-20T01:52:12.166Z,100
2016-07-20T01:52:22.161Z,100
2016-07-20T01:52:32.159Z,100
2016-07-20T01:52:42.153Z,100
2016-07-20T01:52:52.149Z,100
2016-07-20T01:53:02.144Z,100
2016-07-20T01:53:12.145Z,100
2016-07-20T01:53:22.137Z,100
2016-07-20T01:53:32.133Z,100
2016-07-20T01:53:42.127Z,100
2016-07-20T01:53:52.122Z,100
2016-07-20T01:54:02.120Z,100
2016-07-20T01:54:12.114Z,100
2016-07-20T01:54:22.110Z,100
2016-07-20T01:54:32.108Z,100
2016-07-20T01:54:42.100Z,100
2016-07-20T01:54:52.097Z,100
2016-07-20T01:55:02.091Z,100
2016-07-20T01:55:12.087Z,100
2016-07-20T01:55:22.084Z,100
2016-07-20T01:55:32.078Z,100
2016-07-20T01:55:42.077Z,100
2016-07-20T01:55:52.071Z,100
2016-07-20T01:56:02.066Z,100
2016-07-20T01:56:12.062Z,100
2016-07-20T01:56:22.057Z,100
2016-07-20T01:56:32.053Z,100
2016-07-20T01:56:42.050Z,100
2016-07-20T01:56:52.043Z,100
2016-07-20T01:57:02.043Z,100
2016-07-20T01:57:12.036Z,100
2016-07-20T01:57:22.029Z,100
2016-07-20T01:57:32.029Z,100
2016-07-20T01:57:42.023Z,100
2016-07-20T01:57:52.018Z,100
2016-07-20T01:58:02.015Z,100
2016-07-20T01:58:12.008Z,100
2016-07-20T01:58:22.003Z,100
2016-07-20T01:58:31.999Z,100
2016-07-20T01:58:41.997Z,100
2016-07-20T01:58:51.990Z,100
2016-07-20T01:59:01.987Z,100
2016-07-20T01:59:11.983Z,100
2016-07-20T01:59:21.977Z,100
2016-07-20T01:59:31.975Z,100
2016-07-20T01:59:41.972Z,100
2016-07-20T01:59:51.964Z,100
2016-07-20T02:00:01.966Z,100
2016-07-20T02:00:11.958Z,100
2016-07-20T02:00:21.957Z,100
2016-07-20T02:00:31.948Z,100
2016-07-20T02:00:41.943Z,100
2016-07-20T02:00:51.945Z,100
2016-07-20T02:01:01.936Z,100
2016-07-20T02:01:11.930Z,100
2016-07-20T02:01:21.926Z,100
2016-07-20T02:01:31.923Z,100
2016-07-20T02:01:41.917Z,100
2016-07-20T02:01:51.913Z,100
2016-07-20T02:02:01.909Z,100
2016-07-20T02:02:11.906Z,100
2016-07-20T02:02:21.901Z,100
2016-07-20T02:02:31.896Z,100
2016-07-20T02:02:41.905Z,100
2016-07-20T02:02:51.887Z,100
2016-07-20T02:03:01.884Z,100
2016-07-20T02:03:11.877Z,100
2016-07-20T02:03:21.873Z,100
2016-07-20T02:03:32.605Z,100
2016-07-20T02:03:41.864Z,100
2016-07-20T02:03:51.861Z,100
2016-07-20T02:04:01.857Z,100
2016-07-20T02:04:11.852Z,100
2016-07-20T02:04:21.846Z,100
2016-07-20T02:04:31.845Z,100
2016-07-20T02:04:41.837Z,100
2016-07-20T02:04:51.833Z,100
2016-07-20T02:05:01.830Z,100
2016-07-20T02:05:11.824Z,100
2016-07-20T02:05:21.822Z,100
2016-07-20T02:05:31.817Z,100
2016-07-20T02:05:41.813Z,100
2016-07-20T02:05:51.807Z,100
2016-07-20T02:06:01.802Z,100
2016-07-20T02:06:11.801Z,100
2016-07-20T02:06:21.795Z,100
2016-07-20T02:06:31.791Z,100
2016-07-20T02:06:41.786Z,100
2016-07-20T02:06:51.782Z,100
2016-07-20T02:07:01.778Z,100
2016-07-20T02:07:11.775Z,100
2016-07-20T02:07:21.768Z,100
2016-07-20T02:07:31.766Z,100
2016-07-20T02:07:41.762Z,100
2016-07-20T02:07:51.760Z,100
2016-07-20T02:08:01.753Z,100
2016-07-20T02:08:11.749Z,100
2016-07-20T02:08:21.743Z,100
2016-07-20T02:08:31.738Z,100
2016-07-20T02:08:41.735Z,100
2016-07-20T02:08:51.729Z,100
2016-07-20T02:09:01.725Z,100
2016-07-20T02:09:11.723Z,100
2016-07-20T02:09:21.717Z,100
2016-07-20T02:09:31.713Z,100
2016-07-20T02:09:41.709Z,100
2016-07-20T02:09:51.703Z,100
2016-07-20T02:10:01.699Z,100
2016-07-20T02:10:11.694Z,100
2016-07-20T02:10:21.692Z,100
2016-07-20T02:10:31.686Z,100
2016-07-20T02:10:41.684Z,100
2016-07-20T02:10:51.677Z,100
2016-07-20T02:11:01.670Z,100
2016-07-20T02:11:11.669Z,100
2016-07-20T02:11:21.665Z,100
2016-07-20T02:11:31.661Z,100
2016-07-20T02:11:41.654Z,100
2016-07-20T02:11:51.651Z,100
2016-07-20T02:12:01.646Z,100
2016-07-20T02:12:11.641Z,100
2016-07-20T02:12:21.638Z,100
2016-07-20T02:12:31.634Z,100
2016-07-20T02:12:41.628Z,100
2016-07-20T02:12:51.624Z,100
2016-07-20T02:13:01.620Z,100
2016-07-20T02:13:11.617Z,100
2016-07-20T02:13:21.611Z,100
2016-07-20T02:13:31.608Z,100
2016-07-20T02:13:41.602Z,100
2016-07-20T02:13:51.599Z,100
2016-07-20T02:14:01.595Z,100
2016-07-20T02:14:11.591Z,100
2016-07-20T02:14:21.585Z,100
2016-07-20T02:14:31.581Z,100
2016-07-20T02:14:41.578Z,100
2016-07-20T02:14:51.571Z,100
2016-07-20T02:15:01.568Z,100
2016-07-20T02:15:11.563Z,100
2016-07-20T02:15:21.561Z,100
2016-07-20T02:15:31.555Z,100
2016-07-20T02:15:41.553Z,100
2016-07-20T02:15:51.554Z,100
2016-07-20T02:16:01.542Z,100
2016-07-20T02:16:11.539Z,100
2016-07-20T02:16:21.535Z,100
2016-07-20T02:16:31.529Z,100
2016-07-20T02:16:41.523Z,100